Time;durP1;ratioP1;P1;durP2;ratioP2;P2;SDS_P1;SDS_P2;PMS_P1;PMS_P2;Temp;Humidity;BMP_temperature;BMP_pressure;BME280_temperature;BME280_humidity;BME280_pressure;Samples;Min_cycle;Max_cycle;Signal;HPM_P1;HPM_P2
2022/07/03 00:02:05;;;;;;;10.05;4.18;;;;;;;23.74;nan;100697.63;5028372;28;20109;-74
2022/07/03 00:04:30;;;;;;;17.88;4.82;;;;;;;23.76;nan;100667.78;5027307;28;20814;-73
2022/07/03 00:06:56;;;;;;;10.20;4.20;;;;;;;23.74;nan;100645.75;5026548;28;20045;-74
2022/07/03 00:09:22;;;;;;;10.25;4.75;;;;;;;23.73;nan;100657.59;5029454;28;20391;-74
2022/07/03 00:11:48;;;;;;;11.15;4.90;;;;;;;23.76;nan;100641.66;5027226;28;20057;-73
2022/07/03 00:14:14;;;;;;;9.27;4.20;;;;;;;23.69;nan;100575.97;5028935;28;20053;-75
2022/07/03 00:16:39;;;;;;;11.18;4.78;;;;;;;23.60;nan;100604.69;5027598;28;20045;-75
2022/07/03 00:19:05;;;;;;;9.82;4.43;;;;;;;23.57;nan;100647.22;5022925;28;20041;-75
2022/07/03 00:21:46;;;;;;;15.85;4.53;;;;;;;23.54;nan;100650.50;5027447;28;20025;-74
2022/07/03 00:24:40;;;;;;;9.15;4.50;;;;;;;23.53;nan;100643.53;5041609;28;20034;-75
2022/07/03 00:27:09;;;;;;;14.45;5.65;;;;;;;23.51;nan;100637.69;5027317;28;20286;-74
2022/07/03 00:29:38;;;;;;;7.35;4.30;;;;;;;23.44;nan;100648.06;5029707;28;20079;-75
2022/07/03 00:32:09;;;;;;;11.10;4.68;;;;;;;23.36;nan;100621.91;5026532;28;20044;-74
2022/07/03 00:34:34;;;;;;;11.63;4.45;;;;;;;;;;5030535;28;20201;-75
2022/07/03 00:37:01;;;;;;;14.98;4.85;;;;;;;23.21;nan;100643.78;5033615;28;20051;-76
2022/07/03 00:39:26;;;;;;;16.27;4.88;;;;;;;23.13;nan;100645.31;5030438;28;20041;-75
2022/07/03 00:42:03;;;;;;;9.57;5.38;;;;;;;23.02;nan;100676.94;5025597;28;20041;-73
2022/07/03 00:44:30;;;;;;;15.05;5.03;;;;;;;23.00;nan;100624.63;5027165;28;20041;-73
2022/07/03 00:46:56;;;;;;;11.00;5.10;;;;;;;22.96;nan;100637.81;5028063;28;20026;-74
2022/07/03 00:49:25;;;;;;;12.30;5.18;;;;;;;22.93;nan;100631.16;5031386;28;20116;-73
2022/07/03 00:51:52;;;;;;;13.27;5.43;;;;;;;22.86;nan;100625.41;5031411;28;20037;-74
2022/07/03 00:54:21;;;;;;;11.18;5.40;;;;;;;22.83;nan;100625.25;5033039;28;20432;-75
2022/07/03 00:56:52;;;;;;;16.30;5.30;;;;;;;22.79;nan;100616.97;5030848;28;20491;-75
2022/07/03 00:59:18;;;;;;;7.05;4.97;;;;;;;22.79;nan;100621.56;5031433;28;20037;-76
2022/07/03 01:01:44;;;;;;;13.15;4.72;;;;;;;;;;5030769;28;20089;-75
2022/07/03 01:04:28;;;;;;;10.20;5.20;;;;;;;22.69;nan;100641.38;5023230;28;20037;-74
2022/07/03 01:07:05;;;;;;;15.25;5.65;;;;;;;22.66;nan;100613.25;5024350;28;20081;-73
2022/07/03 01:09:53;;;;;;;13.48;5.88;;;;;;;22.61;nan;100634.03;5034201;28;20034;-75
2022/07/03 01:12:56;;;;;;;13.80;5.83;;;;;;;22.59;nan;100623.59;5002448;28;20049;-75
2022/07/03 01:15:24;;;;;;;9.80;5.38;;;;;;;22.61;nan;100636.72;4957878;28;20077;-67
2022/07/03 01:18:18;;;;;;;17.97;5.10;;;;;;;22.60;nan;100640.47;4971898;28;20114;-67
2022/07/03 01:20:51;;;;;;;10.77;4.75;;;;;;;22.53;nan;100638.22;4957287;28;20097;-68
2022/07/03 01:23:30;;;;;;;13.85;4.88;;;;;;;22.50;nan;100625.38;4954847;28;20035;-69
2022/07/03 01:26:00;;;;;;;8.95;4.90;;;;;;;22.50;nan;100574.38;4972312;28;20121;-67
2022/07/03 01:28:26;;;;;;;11.48;5.15;;;;;;;22.42;nan;100634.13;4972037;28;20441;-68
2022/07/03 01:30:54;;;;;;;14.05;5.93;;;;;;;22.37;nan;100581.38;4956190;28;20046;-68
2022/07/03 01:33:22;;;;;;;14.80;5.13;;;;;;;22.34;nan;100624.91;4971834;28;20043;-68
2022/07/03 01:36:09;;;;;;;10.68;5.05;;;;;;;22.34;nan;100630.28;4969512;28;20039;-69
2022/07/03 01:38:42;;;;;;;9.88;5.20;;;;;;;22.24;nan;100607.13;4954627;28;20046;-68
2022/07/03 01:41:09;;;;;;;7.72;5.32;;;;;;;22.31;nan;100553.03;4972315;28;20031;-68
2022/07/03 01:44:04;;;;;;;12.32;5.07;;;;;;;22.32;nan;100653.91;4970831;28;20130;-67
2022/07/03 01:46:32;;;;;;;9.77;4.97;;;;;;;22.26;nan;100604.91;4967399;28;20046;-67
2022/07/03 01:48:59;;;;;;;13.45;5.13;;;;;;;22.20;nan;100650.91;4990957;28;20037;-66
2022/07/03 01:51:26;;;;;;;8.40;4.75;;;;;;;22.24;nan;100628.56;5030536;28;20085;-67
2022/07/03 01:53:52;;;;;;;9.35;5.05;;;;;;;22.14;nan;100660.91;5028069;28;20044;-67
2022/07/03 01:56:23;;;;;;;13.18;5.18;;;;;;;22.08;nan;100563.66;5030360;28;20568;-69
2022/07/03 01:58:48;;;;;;;8.23;5.53;;;;;;;22.04;nan;100664.56;5031093;28;20120;-68
2022/07/03 02:01:33;;;;;;;13.82;5.32;;;;;;;22.05;nan;100625.13;5027208;28;20105;-68
2022/07/03 02:04:12;;;;;;;12.15;5.38;;;;;;;22.02;nan;100623.84;5025402;28;20088;-68
2022/07/03 02:06:43;;;;;;;;;;;;;;;21.99;nan;100613.72;5028113;28;20038;-68
2022/07/03 02:09:11;;;;;;;13.93;5.00;;;;;;;21.98;nan;100614.00;5026750;28;19917;-67
2022/07/03 02:11:39;;;;;;;13.38;5.80;;;;;;;21.89;nan;100675.56;5025500;28;20095;-67
2022/07/03 02:14:07;;;;;;;12.67;5.20;;;;;;;21.95;nan;100623.44;5024029;28;20031;-68
2022/07/03 02:17:08;;;;;;;11.20;5.43;;;;;;;21.94;nan;100653.25;5024963;28;20052;-69
2022/07/03 02:19:56;;;;;;;10.10;5.15;;;;;;;21.91;nan;100659.16;5021703;28;20038;-69
2022/07/03 02:22:30;;;;;;;11.55;5.60;;;;;;;21.84;nan;100644.28;5025265;28;20037;-68
2022/07/03 02:25:05;;;;;;;9.90;6.03;;;;;;;21.76;nan;100652.97;5030241;28;20554;-69
2022/07/03 02:27:47;;;;;;;8.32;5.72;;;;;;;21.70;nan;100686.31;5026629;28;20069;-67
2022/07/03 02:30:13;;;;;;;8.70;5.22;;;;;;;21.65;nan;100697.91;5027534;28;20128;-68
2022/07/03 02:32:44;;;;;;;9.20;5.72;;;;;;;21.57;nan;100606.66;5028843;28;20505;-68
2022/07/03 02:35:21;;;;;;;10.68;5.88;;;;;;;21.51;nan;100656.88;5027618;28;20103;-68
2022/07/03 02:37:55;;;;;;;9.63;5.63;;;;;;;21.50;nan;100649.94;5027843;28;20037;-68
2022/07/03 02:40:28;;;;;;;12.48;5.55;;;;;;;21.43;nan;100652.19;5025266;28;20045;-67
2022/07/03 02:43:23;;;;;;;10.52;5.55;;;;;;;21.37;nan;100661.34;5027674;28;20033;-68
2022/07/03 02:45:58;;;;;;;12.00;5.65;;;;;;;21.28;nan;100653.16;5025408;28;20045;-67
2022/07/03 02:48:33;;;;;;;10.25;5.50;;;;;;;21.25;nan;100648.38;5029199;28;20487;-67
2022/07/03 02:51:09;;;;;;;16.23;5.78;;;;;;;21.16;nan;100648.22;5027921;28;20046;-68
2022/07/03 02:53:44;;;;;;;12.55;5.78;;;;;;;21.16;nan;100642.88;5030250;28;20037;-74
2022/07/03 02:56:18;;;;;;;9.35;6.28;;;;;;;21.13;nan;100602.50;5030832;28;20037;-73
2022/07/03 02:58:59;;;;;;;9.43;5.70;;;;;;;21.11;nan;100636.81;5007781;28;20034;-73
2022/07/03 03:01:30;;;;;;;10.85;6.03;;;;;;;21.09;nan;100634.41;5028100;28;20084;-75
2022/07/03 03:04:18;;;;;;;10.98;5.72;;;;;;;21.10;nan;100651.28;5023980;28;20121;-75
2022/07/03 03:06:53;;;;;;;10.20;6.18;;;;;;;21.07;nan;100647.31;5029468;28;20132;-75
2022/07/03 03:09:27;;;;;;;9.73;5.90;;;;;;;21.13;nan;100653.38;5020578;28;20388;-76
2022/07/03 03:11:59;;;;;;;13.68;6.47;;;;;;;21.11;nan;100645.63;5025158;28;20132;-76
2022/07/03 03:14:38;;;;;;;11.82;5.88;;;;;;;21.10;nan;100646.72;5025594;28;20513;-76
2022/07/03 03:17:05;;;;;;;9.68;6.00;;;;;;;21.08;nan;100637.41;5021274;28;20037;-75
2022/07/03 03:19:40;;;;;;;10.40;6.40;;;;;;;21.04;nan;100643.31;5024637;28;20431;-76
2022/07/03 03:22:21;;;;;;;13.38;6.85;;;;;;;21.09;nan;100630.94;5029861;28;20092;-76
2022/07/03 03:24:46;;;;;;;14.23;6.15;;;;;;;21.06;nan;100659.09;5025654;28;20153;-75
2022/07/03 03:27:12;;;;;;;15.70;6.30;;;;;;;21.03;nan;100636.38;5027458;28;20539;-74
2022/07/03 03:29:39;;;;;;;15.07;8.95;;;;;;;21.09;nan;100657.72;5029705;28;20037;-73
2022/07/03 03:32:05;;;;;;;13.40;7.50;;;;;;;21.11;nan;100663.59;5023574;28;20049;-76
2022/07/03 03:34:32;;;;;;;14.23;6.18;;;;;;;21.14;nan;100641.56;5029845;28;20044;-75
2022/07/03 03:36:57;;;;;;;16.67;7.38;;;;;;;21.20;nan;100661.84;5024769;28;20516;-76
2022/07/03 03:39:24;;;;;;;15.75;6.22;;;;;;;21.21;nan;100677.66;5027958;28;20041;-77
2022/07/03 03:41:49;;;;;;;10.50;5.82;;;;;;;21.23;nan;100661.28;5030520;28;20056;-75
2022/07/03 03:44:15;;;;;;;10.05;6.78;;;;;;;21.23;nan;100666.63;5030356;28;20041;-74
2022/07/03 03:46:40;;;;;;;12.52;5.70;;;;;;;21.24;nan;100622.69;5028572;28;20038;-73
2022/07/03 03:49:06;;;;;;;15.70;5.88;;;;;;;21.31;nan;100660.63;5028393;28;20036;-76
2022/07/03 03:51:31;;;;;;;12.68;6.45;;;;;;;21.36;nan;100670.47;5027952;28;20026;-75
2022/07/03 03:53:57;;;;;;;10.90;6.55;;;;;;;21.35;nan;100674.22;5027045;28;20061;-75
2022/07/03 03:56:23;;;;;;;15.73;7.15;;;;;;;21.36;nan;100627.63;5027923;28;20046;-76
2022/07/03 03:58:49;;;;;;;9.70;6.55;;;;;;;21.45;nan;100685.63;5031461;28;20419;-75
2022/07/03 04:01:15;;;;;;;13.30;6.72;;;;;;;21.45;nan;100669.56;5030587;28;20033;-74
2022/07/03 04:03:41;;;;;;;13.65;7.05;;;;;;;21.54;nan;100667.00;5025121;28;20041;-75
2022/07/03 04:06:06;;;;;;;13.80;7.32;;;;;;;21.57;nan;100620.06;5029668;28;20030;-73
2022/07/03 04:08:31;;;;;;;14.23;7.32;;;;;;;;;;5027163;28;20036;-75
2022/07/03 04:10:58;;;;;;;17.73;7.80;;;;;;;21.59;nan;100623.25;5025617;28;20507;-74
2022/07/03 04:13:24;;;;;;;13.52;7.60;;;;;;;21.66;nan;100733.56;5024928;28;20762;-74
2022/07/03 04:15:51;;;;;;;16.17;8.38;;;;;;;21.75;nan;100696.19;5025345;28;20036;-74
2022/07/03 04:18:16;;;;;;;13.18;8.75;;;;;;;21.83;nan;100671.38;5027042;28;20029;-75
2022/07/03 04:20:43;;;;;;;13.50;8.13;;;;;;;21.85;nan;100661.94;5028161;28;20430;-75
2022/07/03 04:23:08;;;;;;;13.45;7.72;;;;;;;21.88;nan;100719.53;5025507;28;20030;-74
2022/07/03 04:25:34;;;;;;;13.98;9.32;;;;;;;21.99;nan;100686.13;5026958;28;20026;-75
2022/07/03 04:27:59;;;;;;;12.15;8.60;;;;;;;22.02;nan;100724.94;5021982;28;20155;-75
2022/07/03 04:30:25;;;;;;;11.40;8.48;;;;;;;22.09;nan;100634.19;5028374;28;20171;-75
2022/07/03 04:32:50;;;;;;;11.43;8.05;;;;;;;22.13;nan;100688.03;5026735;28;20116;-75
2022/07/03 04:35:16;;;;;;;9.73;7.25;;;;;;;22.18;nan;100688.72;5026173;28;20048;-76
2022/07/03 04:37:43;;;;;;;10.18;7.43;;;;;;;22.24;nan;100689.47;5025078;28;20111;-76
2022/07/03 04:40:09;;;;;;;11.93;7.22;;;;;;;22.23;nan;100661.84;5021741;28;20729;-76
2022/07/03 04:42:35;;;;;;;10.60;7.80;;;;;;;22.28;nan;100690.47;5024469;28;20380;-74
2022/07/03 04:45:01;;;;;;;10.63;7.65;;;;;;;22.30;nan;100678.34;5022805;28;20037;-74
2022/07/03 04:47:27;;;;;;;13.18;8.25;;;;;;;;;;5026811;28;20033;-75
2022/07/03 04:49:52;;;;;;;15.60;7.40;;;;;;;22.37;nan;100690.59;5025952;28;20553;-76
2022/07/03 04:52:17;;;;;;;10.82;7.10;;;;;;;22.39;nan;100667.72;5024289;28;20283;-75
2022/07/03 04:54:43;;;;;;;11.75;6.82;;;;;;;22.40;nan;100649.75;5025381;28;20044;-74
2022/07/03 04:57:09;;;;;;;11.93;7.05;;;;;;;22.43;nan;100665.22;5027248;28;20095;-75
2022/07/03 04:59:34;;;;;;;10.27;6.78;;;;;;;22.50;nan;100676.38;5028326;28;20091;-75
2022/07/03 05:02:00;;;;;;;10.73;7.13;;;;;;;22.55;nan;100668.22;5027689;28;20025;-75
2022/07/03 05:04:26;;;;;;;9.82;7.03;;;;;;;22.52;nan;100687.59;5030419;28;20033;-75
2022/07/03 05:06:51;;;;;;;9.75;6.78;;;;;;;22.54;nan;100684.63;5028336;28;20026;-76
2022/07/03 05:09:18;;;;;;;11.10;7.22;;;;;;;22.58;nan;100656.09;5042367;28;20029;-75
2022/07/03 05:11:43;;;;;;;10.88;7.03;;;;;;;22.57;nan;100659.88;5028995;28;20049;-75
2022/07/03 05:14:09;;;;;;;13.18;7.47;;;;;;;22.52;nan;100683.03;5029231;28;20037;-74
2022/07/03 05:16:34;;;;;;;11.90;7.07;;;;;;;;;;5024281;28;20041;-73
2022/07/03 05:19:00;;;;;;;15.50;6.50;;;;;;;22.73;nan;100680.75;5027155;28;20112;-75
2022/07/03 05:21:26;;;;;;;11.32;6.57;;;;;;;22.81;nan;100683.81;5031734;28;20068;-74
2022/07/03 05:23:51;;;;;;;12.63;6.32;;;;;;;22.88;nan;100676.94;5031366;28;20064;-75
2022/07/03 05:26:17;;;;;;;13.32;6.30;;;;;;;22.93;nan;100668.78;5030586;28;20125;-74
2022/07/03 05:28:42;;;;;;;14.52;6.28;;;;;;;23.00;nan;100664.91;5029125;28;20037;-74
2022/07/03 05:31:08;;;;;;;12.07;5.95;;;;;;;23.05;nan;100692.47;5031565;28;20107;-75
2022/07/03 05:33:33;;;;;;;12.68;5.85;;;;;;;23.10;nan;100686.19;5029149;28;20052;-74
2022/07/03 05:35:59;;;;;;;14.20;5.95;;;;;;;23.06;nan;100728.97;5026496;28;20034;-75
2022/07/03 05:41:09;;;;;;;10.18;5.38;;;;;;;23.19;nan;100711.25;5032741;28;20037;-73
2022/07/03 05:43:34;;;;;;;11.57;5.47;;;;;;;23.25;nan;100746.84;5031048;28;20030;-73
2022/07/03 05:46:00;;;;;;;10.40;5.70;;;;;;;23.25;nan;100744.97;5030486;28;20021;-73
2022/07/03 05:48:25;;;;;;;10.13;5.60;;;;;;;23.29;nan;100702.16;5030484;28;20116;-74
2022/07/03 05:50:51;;;;;;;7.55;5.53;;;;;;;23.35;nan;100677.56;5031077;28;20124;-76
2022/07/03 05:53:16;;;;;;;11.32;5.68;;;;;;;23.46;nan;100696.13;5028872;28;21434;-73
2022/07/03 05:55:42;;;;;;;9.93;5.75;;;;;;;23.53;nan;100697.28;5028927;28;20060;-75
2022/07/03 05:58:07;;;;;;;9.38;5.25;;;;;;;23.55;nan;100692.41;5025020;28;20040;-73
2022/07/03 06:00:33;;;;;;;8.60;5.05;;;;;;;23.66;nan;100717.19;5024709;28;20037;-75
2022/07/03 06:02:58;;;;;;;8.93;5.70;;;;;;;23.71;nan;100687.47;5029661;28;20036;-75
2022/07/03 06:05:24;;;;;;;14.68;5.35;;;;;;;23.78;nan;100703.22;5032725;28;20036;-73
2022/07/03 06:07:50;;;;;;;9.82;5.80;;;;;;;23.83;nan;100724.59;5028323;28;20467;-73
2022/07/03 06:10:15;;;;;;;10.27;5.38;;;;;;;23.91;nan;100784.94;5027337;28;20040;-75
2022/07/03 06:12:41;;;;;;;12.77;5.40;;;;;;;23.92;nan;100754.22;5025122;28;20483;-74
2022/07/03 06:15:07;;;;;;;11.70;6.38;;;;;;;24.02;nan;100708.28;5027685;28;20033;-75
2022/07/03 06:17:36;;;;;;;16.00;5.80;;;;;;;23.95;nan;100652.22;5027874;28;20037;-75
2022/07/03 06:20:02;;;;;;;10.32;5.80;;;;;;;24.07;nan;100705.44;5029074;28;20083;-75
2022/07/03 06:22:27;;;;;;;7.78;5.95;;;;;;;24.13;nan;100690.75;5031982;28;20025;-75
2022/07/03 06:24:52;;;;;;;13.10;6.65;;;;;;;24.16;nan;100690.16;5028599;28;20033;-75
2022/07/03 06:27:18;;;;;;;8.88;5.82;;;;;;;24.16;nan;100703.59;5026598;28;20052;-75
2022/07/03 06:29:43;;;;;;;16.85;6.07;;;;;;;24.16;nan;100668.63;5028950;28;20491;-75
2022/07/03 06:32:09;;;;;;;14.05;5.88;;;;;;;24.19;nan;100688.72;5031618;28;20110;-74
2022/07/03 06:34:34;;;;;;;9.88;6.00;;;;;;;24.25;nan;100716.28;5027434;28;20534;-75
2022/07/03 06:36:59;;;;;;;13.45;6.40;;;;;;;24.30;nan;100706.22;5029877;28;20037;-73
2022/07/03 06:39:25;;;;;;;10.38;6.30;;;;;;;24.32;nan;100700.50;5028366;28;20487;-73
2022/07/03 06:41:50;;;;;;;11.35;6.45;;;;;;;24.38;nan;100705.44;5028491;28;20037;-74
2022/07/03 06:44:16;;;;;;;8.68;6.15;;;;;;;24.44;nan;100687.25;5028457;28;20036;-73
2022/07/03 06:46:41;;;;;;;12.88;6.10;;;;;;;24.48;nan;100700.91;5026076;28;20439;-75
2022/07/03 06:49:06;;;;;;;14.05;6.10;;;;;;;24.54;nan;100692.41;5026097;28;20041;-75
2022/07/03 06:51:33;;;;;;;10.48;5.90;;;;;;;24.55;nan;100720.09;5031443;28;20045;-71
2022/07/03 06:53:59;;;;;;;10.30;6.20;;;;;;;24.61;nan;100683.84;5022424;28;20076;-77
2022/07/03 06:56:24;;;;;;;11.45;6.72;;;;;;;24.66;nan;100713.31;5024782;28;20524;-76
2022/07/03 06:58:50;;;;;;;13.65;6.47;;;;;;;24.79;nan;100693.56;5023610;28;20057;-76
2022/07/03 07:01:15;;;;;;;10.30;6.20;;;;;;;24.88;nan;100711.63;5031129;28;20061;-76
2022/07/03 07:03:41;;;;;;;9.50;6.00;;;;;;;24.95;nan;100690.41;5028712;28;20479;-76
2022/07/03 07:06:06;;;;;;;13.60;6.28;;;;;;;25.03;nan;100767.78;5032076;28;20080;-73
2022/07/03 07:08:32;;;;;;;12.20;6.47;;;;;;;25.08;nan;100713.75;5023387;28;20041;-75
2022/07/03 07:10:57;;;;;;;11.85;6.22;;;;;;;25.15;nan;100700.59;5025390;28;20443;-76
2022/07/03 07:13:22;;;;;;;10.57;6.57;;;;;;;25.27;nan;100704.59;5027857;28;20051;-75
2022/07/03 07:15:48;;;;;;;11.82;6.82;;;;;;;25.39;nan;100664.31;5025652;28;20026;-75
2022/07/03 07:18:13;;;;;;;15.30;6.72;;;;;;;25.40;nan;100717.91;5024199;28;20033;-75
2022/07/03 07:20:40;;;;;;;11.98;7.47;;;;;;;25.49;nan;100700.97;5024776;28;20029;-76
2022/07/03 07:23:05;;;;;;;14.73;7.53;;;;;;;25.66;nan;100703.63;5028663;28;20034;-74
2022/07/03 07:25:31;;;;;;;10.93;7.22;;;;;;;25.75;nan;100703.63;5026313;28;20026;-75
2022/07/03 07:27:56;;;;;;;17.10;8.15;;;;;;;25.80;nan;100650.28;5031563;28;20438;-77
2022/07/03 07:30:22;;;;;;;14.43;7.93;;;;;;;25.89;nan;100701.56;5027420;28;20033;-73
2022/07/03 07:32:47;;;;;;;11.95;8.00;;;;;;;25.98;nan;100698.84;5028225;28;20025;-74
2022/07/03 07:35:12;;;;;;;11.43;7.80;;;;;;;26.04;nan;100709.16;5026331;28;20037;-75
2022/07/03 07:37:38;;;;;;;20.25;7.55;;;;;;;26.15;nan;100715.00;5023939;28;20168;-76
2022/07/03 07:40:04;;;;;;;16.92;7.80;;;;;;;26.22;nan;100707.19;5025326;28;20029;-77
2022/07/03 07:42:29;;;;;;;16.90;8.63;;;;;;;;;;5025367;28;20124;-78
2022/07/03 07:44:55;;;;;;;16.02;8.55;;;;;;;26.47;nan;100689.28;5028989;28;20108;-76
2022/07/03 07:47:20;;;;;;;18.52;8.95;;;;;;;26.56;nan;100672.31;5024143;28;20480;-76
2022/07/03 07:49:46;;;;;;;13.88;9.38;;;;;;;26.73;nan;100664.09;5026093;28;20471;-78
2022/07/03 07:52:11;;;;;;;18.35;9.88;;;;;;;26.84;nan;100695.03;5026422;28;20033;-79
2022/07/03 07:54:37;;;;;;;15.68;9.07;;;;;;;26.89;nan;100672.44;5026733;28;20033;-78
2022/07/03 07:57:02;;;;;;;15.73;9.32;;;;;;;26.95;nan;100692.72;5021655;28;20038;-76
2022/07/03 07:59:28;;;;;;;20.80;9.23;;;;;;;27.07;nan;100700.09;5027473;28;20025;-78
2022/07/03 08:07:21;;;;;;;15.13;9.90;;;;;;;27.41;nan;100673.94;5024808;28;20030;-77
2022/07/03 08:09:46;;;;;;;16.33;10.98;;;;;;;27.49;nan;100679.28;5025381;28;20475;-78
2022/07/03 08:12:12;;;;;;;17.25;10.10;;;;;;;27.66;nan;100658.59;5021570;28;20257;-78
2022/07/03 08:14:37;;;;;;;17.08;10.05;;;;;;;27.69;nan;100663.34;5023602;28;20544;-77
2022/07/03 08:17:04;;;;;;;15.05;9.85;;;;;;;27.77;nan;100703.03;5024450;28;20037;-78
2022/07/03 08:19:29;;;;;;;14.07;9.75;;;;;;;27.83;nan;100633.31;5026439;28;20084;-76
2022/07/03 08:21:55;;;;;;;13.20;10.35;;;;;;;27.89;nan;100623.81;5021113;28;20026;-78
2022/07/03 08:24:20;;;;;;;13.73;9.65;;;;;;;28.02;nan;100673.38;5028523;28;20029;-77
2022/07/03 08:26:45;;;;;;;13.13;9.93;;;;;;;28.09;nan;100670.91;5024521;28;20045;-78
2022/07/03 08:29:11;;;;;;;14.27;10.15;;;;;;;28.18;nan;100661.53;5027732;28;20455;-77
2022/07/03 08:31:37;;;;;;;13.18;9.93;;;;;;;28.29;nan;100677.34;5027081;28;20064;-77
2022/07/03 08:34:02;;;;;;;14.18;9.80;;;;;;;28.36;nan;100661.31;5024479;28;20042;-77
2022/07/03 08:36:27;;;;;;;13.95;9.65;;;;;;;28.39;nan;100703.97;5029449;28;20025;-76
2022/07/03 08:38:53;;;;;;;20.25;9.65;;;;;;;28.43;nan;100688.63;5028975;28;20056;-74
2022/07/03 08:41:19;;;;;;;13.05;8.52;;;;;;;28.55;nan;100641.81;5022244;28;20427;-74
2022/07/03 08:43:45;;;;;;;13.30;8.80;;;;;;;28.58;nan;100666.28;5018225;28;20107;-75
2022/07/03 08:46:11;;;;;;;12.88;8.52;;;;;;;28.70;nan;100657.34;5018197;28;20464;-76
2022/07/03 08:48:37;;;;;;;13.18;8.85;;;;;;;28.82;nan;100661.97;5025112;28;20739;-76
2022/07/03 08:51:02;;;;;;;15.63;8.80;;;;;;;28.87;nan;100620.28;5023194;28;20473;-75
2022/07/03 08:53:28;;;;;;;11.75;8.82;;;;;;;29.01;nan;100624.19;5020829;28;20522;-75
2022/07/03 08:55:53;;;;;;;15.30;9.15;;;;;;;29.15;nan;100664.50;5024145;28;20030;-76
2022/07/03 08:58:22;;;;;;;19.40;14.00;;;;;;;29.30;nan;100671.09;5024851;28;20105;-76
2022/07/03 09:00:47;;;;;;;12.13;9.23;;;;;;;29.41;nan;100668.72;5020434;28;20495;-75
2022/07/03 09:03:14;;;;;;;12.65;8.77;;;;;;;29.47;nan;100697.97;5016000;28;20033;-76
2022/07/03 09:05:40;;;;;;;14.27;8.40;;;;;;;29.55;nan;100671.81;5020485;28;20040;-77
2022/07/03 09:08:07;;;;;;;13.95;8.30;;;;;;;29.65;nan;100637.94;5031134;28;20391;-74
2022/07/03 09:10:33;;;;;;;12.68;8.05;;;;;;;29.78;nan;100635.97;5024060;28;20049;-75
2022/07/03 09:12:59;;;;;;;10.93;7.70;;;;;;;29.90;nan;100623.06;5030307;28;20055;-75
2022/07/03 09:15:24;;;;;;;10.80;7.90;;;;;;;30.01;nan;100704.03;5026778;28;20507;-75
2022/07/03 09:18:04;;;;;;;13.43;8.07;;;;;;;30.07;nan;100662.69;5029897;28;20033;-77
2022/07/03 09:20:39;;;;;;;10.70;8.63;;;;;;;30.14;nan;100647.69;5025402;28;20137;-76
2022/07/03 09:23:16;;;;;;;14.82;8.43;;;;;;;30.22;nan;100630.44;5025243;28;20067;-75
2022/07/03 09:25:54;;;;;;;13.80;9.05;;;;;;;30.35;nan;100671.91;5020132;28;20141;-75
2022/07/03 09:28:21;;;;;;;15.80;8.70;;;;;;;30.42;nan;100661.19;5020033;28;20166;-76
2022/07/03 09:30:57;;;;;;;14.52;8.57;;;;;;;30.49;nan;100664.06;5006452;28;20037;-75
2022/07/03 09:33:23;;;;;;;12.38;8.65;;;;;;;30.62;nan;100662.81;5023380;28;20045;-75
2022/07/03 09:35:54;;;;;;;10.27;8.70;;;;;;;30.72;nan;100639.72;5022550;28;20033;-76
2022/07/03 09:38:19;;;;;;;10.82;8.80;;;;;;;30.76;nan;100591.66;5029431;28;20037;-75
2022/07/03 09:40:53;;;;;;;13.98;8.80;;;;;;;30.79;nan;100652.69;5026088;28;20026;-76
2022/07/03 09:43:28;;;;;;;15.38;9.13;;;;;;;30.82;nan;100687.31;5029142;28;20030;-76
2022/07/03 09:45:56;;;;;;;12.15;9.00;;;;;;;30.90;nan;100618.38;5031190;28;20033;-76
2022/07/03 09:48:35;;;;;;;11.32;9.02;;;;;;;31.02;nan;100626.38;5020475;28;20048;-75
2022/07/03 09:51:23;;;;;;;15.00;9.20;;;;;;;31.07;nan;100628.81;5018738;28;20037;-75
2022/07/03 09:53:55;;;;;;;13.63;9.00;;;;;;;31.14;nan;100639.84;5015546;28;20045;-75
2022/07/03 09:56:26;;;;;;;13.50;9.40;;;;;;;31.22;nan;100610.81;5018944;28;20064;-75
2022/07/03 09:59:21;;;;;;;11.75;9.00;;;;;;;31.38;nan;100629.78;5018279;28;20033;-76
2022/07/03 10:01:46;;;;;;;12.27;9.30;;;;;;;31.48;nan;100625.72;5007721;28;20068;-75
2022/07/03 10:04:19;;;;;;;16.35;9.15;;;;;;;31.58;nan;100609.59;5030335;28;20068;-75
2022/07/03 10:06:59;;;;;;;15.30;9.38;;;;;;;31.62;nan;100614.28;5027100;28;20044;-75
2022/07/03 10:09:25;;;;;;;15.35;8.93;;;;;;;31.78;nan;100615.75;5026309;28;20030;-75
2022/07/03 10:11:52;;;;;;;18.10;9.50;;;;;;;31.85;nan;100606.91;5026345;28;20053;-74
2022/07/03 10:14:20;;;;;;;14.38;8.57;;;;;;;31.83;nan;100611.94;5029386;28;20124;-74
2022/07/03 10:16:46;;;;;;;16.23;8.63;;;;;;;31.77;nan;100614.19;5028251;28;20037;-75
2022/07/03 10:19:18;;;;;;;11.98;8.20;;;;;;;31.82;nan;100585.06;5028100;28;20099;-74
2022/07/03 10:21:51;;;;;;;9.60;8.60;;;;;;;31.88;nan;100589.06;5029347;28;20029;-75
2022/07/03 10:24:17;;;;;;;11.80;8.23;;;;;;;31.87;nan;100585.56;5029603;28;20448;-75
2022/07/03 10:26:44;;;;;;;16.27;8.32;;;;;;;31.89;nan;100634.97;5027985;28;20048;-75
2022/07/03 10:29:10;;;;;;;11.38;8.57;;;;;;;31.95;nan;100573.63;5031525;28;20025;-73
2022/07/03 10:31:37;;;;;;;14.55;8.27;;;;;;;31.98;nan;100569.38;5028158;28;20503;-74
2022/07/03 10:34:05;;;;;;;14.68;8.05;;;;;;;31.94;nan;100565.78;5026664;28;20363;-75
2022/07/03 10:36:30;;;;;;;16.60;7.22;;;;;;;31.94;nan;100555.69;5027371;28;20090;-75
2022/07/03 10:39:00;;;;;;;12.45;8.63;;;;;;;32.04;nan;100561.69;5027959;28;20429;-76
2022/07/03 10:47:02;;;;;;;13.18;7.35;;;;;;;32.21;nan;100564.66;5027615;28;20471;-74
2022/07/03 10:49:27;;;;;;;13.00;8.15;;;;;;;32.29;nan;100551.91;5024560;28;20030;-74
2022/07/03 10:52:03;;;;;;;10.90;7.47;;;;;;;32.41;nan;100568.03;5025906;28;20033;-74
2022/07/03 10:54:29;;;;;;;10.05;6.90;;;;;;;32.46;nan;100571.59;5027222;28;20446;-75
2022/07/03 10:56:57;;;;;;;15.32;7.38;;;;;;;32.49;nan;100549.06;5024860;28;20034;-74
2022/07/03 10:59:23;;;;;;;9.82;7.50;;;;;;;32.47;nan;100573.97;5028188;28;20029;-74
2022/07/03 11:01:48;;;;;;;10.43;7.03;;;;;;;32.59;nan;100583.88;5023046;28;20029;-74
2022/07/03 11:04:14;;;;;;;9.90;7.50;;;;;;;32.69;nan;100522.47;5024904;28;20045;-74
2022/07/03 11:06:42;;;;;;;12.75;7.60;;;;;;;32.72;nan;100549.75;5024411;28;20030;-75
2022/07/03 11:09:15;;;;;;;12.15;7.72;;;;;;;32.71;nan;100556.38;5023497;28;20049;-75
2022/07/03 11:11:57;;;;;;;11.15;8.40;;;;;;;32.79;nan;100540.88;5024307;28;20046;-75
2022/07/03 11:14:27;;;;;;;11.93;7.85;;;;;;;32.86;nan;100537.44;5026379;28;20037;-74
2022/07/03 11:17:21;;;;;;;12.02;7.40;;;;;;;32.99;nan;100552.38;5024214;28;20057;-74
2022/07/03 11:22:49;;;;;;;14.25;7.80;;;;;;;32.98;nan;100524.31;5026135;28;20026;-75
2022/07/03 11:25:17;;;;;;;9.13;7.57;;;;;;;32.95;nan;100519.63;5029962;28;20033;-75
2022/07/03 11:27:42;;;;;;;17.38;7.88;;;;;;;32.94;nan;100522.72;5023315;28;20399;-75
2022/07/03 11:30:08;;;;;;;14.95;7.90;;;;;;;32.96;nan;100532.09;5026450;28;20034;-76
2022/07/03 11:32:51;;;;;;;13.95;8.00;;;;;;;33.00;nan;100508.38;5031499;28;20403;-76
2022/07/03 11:35:48;;;;;;;11.50;7.82;;;;;;;33.03;nan;100515.00;5024722;28;20028;-76
2022/07/03 11:38:28;;;;;;;10.57;7.55;;;;;;;33.14;nan;100517.84;5023666;28;20033;-76
2022/07/03 11:40:55;;;;;;;11.43;7.82;;;;;;;33.28;nan;100530.84;5037053;28;20120;-75
2022/07/03 11:43:21;;;;;;;11.25;8.32;;;;;;;33.39;nan;100529.00;5026722;28;20033;-76
2022/07/03 11:45:47;;;;;;;11.43;7.82;;;;;;;33.41;nan;100524.75;5021934;28;20025;-77
2022/07/03 11:48:23;;;;;;;12.27;7.78;;;;;;;33.50;nan;100515.44;5028276;28;20482;-75
2022/07/03 11:50:50;;;;;;;12.13;7.88;;;;;;;33.53;nan;100479.19;5025268;28;20761;-75
2022/07/03 11:53:23;;;;;;;12.52;7.97;;;;;;;33.58;nan;100484.34;5022813;28;20030;-75
2022/07/03 11:55:51;;;;;;;15.02;8.07;;;;;;;33.70;nan;100475.06;5025396;28;20429;-75
2022/07/03 11:58:17;;;;;;;11.37;8.33;;;;;;;33.84;nan;100484.09;5019365;28;20033;-75
2022/07/03 12:00:43;;;;;;;11.82;7.75;;;;;;;33.88;nan;100497.78;5030166;28;20045;-76
2022/07/03 12:03:14;;;;;;;11.93;8.40;;;;;;;33.80;nan;100420.47;5029190;28;20037;-76